< < Back
Terminal Aerodrome Forecast


Current Version              Previous Versions:   1  2  3  4  5  6  7  8  9  

Terminal Aerodrome Forecast

517
FTUS42 KILM 041431 AAB
TAFILM
TAF AMD
KILM 041431Z 0415/0512 24010KT P6SM VCSH SCT025 BKN050
      TEMPO 0415/0416 5SM SHRA BKN025
     FM042100 24011G18KT P6SM SCT050
      TEMPO 0421/0424 4SM SHRA BKN050
     FM050300 26003KT 4SM BR SKC=



Latest METAR

524
SAUS70 KWBC 041500 RRA
MTRILM
METAR KILM 041453Z AUTO VRB04KT 10SM -RA SCT055 BKN070 BKN095 22/19
A2967 RMK AO2 RAB36 SLP047 P0000 60010 T02170194 57007


USA.gov is the U.S. government's official web portal to all federal, state and local government web resources and services.